sensor_id;sensor_type;location;lat;lon;timestamp;pressure;altitude;pressure_sealevel;temperature;humidity
5952;BME280;3001;42.622;23.194;2023-03-18T00:01:37;91565.84;;;2.89;80.59
5952;BME280;3001;42.622;23.194;2023-03-18T00:04:04;91563.59;;;3.02;80.25
5952;BME280;3001;42.622;23.194;2023-03-18T00:06:31;91564.31;;;2.93;80.05
5952;BME280;3001;42.622;23.194;2023-03-18T00:08:59;91554.63;;;3.00;79.54
5952;BME280;3001;42.622;23.194;2023-03-18T00:11:26;91558.66;;;2.91;78.91
5952;BME280;3001;42.622;23.194;2023-03-18T00:13:53;91557.41;;;2.93;80.15
5952;BME280;3001;42.622;23.194;2023-03-18T00:16:20;91546.13;;;2.94;80.44
5952;BME280;3001;42.622;23.194;2023-03-18T00:18:46;91547.59;;;2.85;79.41
5952;BME280;3001;42.622;23.194;2023-03-18T00:21:13;91548.59;;;2.79;79.60
5952;BME280;3001;42.622;23.194;2023-03-18T00:23:41;91525.47;;;2.69;79.00
5952;BME280;3001;42.622;23.194;2023-03-18T00:26:09;91542.66;;;2.74;78.61
5952;BME280;3001;42.622;23.194;2023-03-18T00:28:36;91536.16;;;2.61;79.29
5952;BME280;3001;42.622;23.194;2023-03-18T00:31:08;91532.56;;;2.62;78.84
5952;BME280;3001;42.622;23.194;2023-03-18T00:33:36;91534.34;;;2.57;79.50
5952;BME280;3001;42.622;23.194;2023-03-18T00:36:05;91530.25;;;2.56;78.77
5952;BME280;3001;42.622;23.194;2023-03-18T00:38:34;91521.94;;;2.44;80.05
5952;BME280;3001;42.622;23.194;2023-03-18T00:41:01;91523.78;;;2.48;80.68
5952;BME280;3001;42.622;23.194;2023-03-18T00:43:38;91523.91;;;2.68;80.58
5952;BME280;3001;42.622;23.194;2023-03-18T00:46:11;91501.78;;;2.57;78.86
5952;BME280;3001;42.622;23.194;2023-03-18T00:48:38;91509.94;;;2.49;80.32
5952;BME280;3001;42.622;23.194;2023-03-18T00:51:04;91514.56;;;2.47;80.64
5952;BME280;3001;42.622;23.194;2023-03-18T00:53:32;91505.88;;;2.53;80.74
5952;BME280;3001;42.622;23.194;2023-03-18T00:55:58;91500.72;;;2.48;80.93
5952;BME280;3001;42.622;23.194;2023-03-18T00:58:25;91494.31;;;2.51;80.53
5952;BME280;3001;42.622;23.194;2023-03-18T01:00:53;91501.78;;;2.57;80.71
5952;BME280;3001;42.622;23.194;2023-03-18T01:03:20;91495.84;;;2.52;81.62
5952;BME280;3001;42.622;23.194;2023-03-18T01:05:50;91492.03;;;2.54;82.02
5952;BME280;3001;42.622;23.194;2023-03-18T01:08:17;91492.63;;;2.71;80.58
5952;BME280;3001;42.622;23.194;2023-03-18T01:10:44;91493.13;;;2.68;78.99
5952;BME280;3001;42.622;23.194;2023-03-18T01:13:11;91489.34;;;2.81;77.58
5952;BME280;3001;42.622;23.194;2023-03-18T01:15:38;91490.53;;;2.63;78.60
5952;BME280;3001;42.622;23.194;2023-03-18T01:18:07;91491.31;;;2.64;79.02
5952;BME280;3001;42.622;23.194;2023-03-18T01:20:35;91489.47;;;2.54;79.83
5952;BME280;3001;42.622;23.194;2023-03-18T01:23:02;91487.91;;;2.48;80.63
5952;BME280;3001;42.622;23.194;2023-03-18T01:25:29;91488.38;;;2.45;80.44
5952;BME280;3001;42.622;23.194;2023-03-18T01:27:55;91487.81;;;2.38;80.61
5952;BME280;3001;42.622;23.194;2023-03-18T01:30:22;91479.81;;;2.30;78.99
5952;BME280;3001;42.622;23.194;2023-03-18T01:32:49;91467.91;;;2.14;81.24
5952;BME280;3001;42.622;23.194;2023-03-18T01:35:18;91485.13;;;2.23;79.78
5952;BME280;3001;42.622;23.194;2023-03-18T01:37:44;91477.91;;;2.15;80.03
5952;BME280;3001;42.622;23.194;2023-03-18T01:40:12;91485.38;;;2.17;78.63
5952;BME280;3001;42.622;23.194;2023-03-18T01:42:41;91475.81;;;2.07;79.11
5952;BME280;3001;42.622;23.194;2023-03-18T01:45:16;91481.91;;;2.01;79.66
5952;BME280;3001;42.622;23.194;2023-03-18T01:47:44;91479.81;;;1.93;80.50
5952;BME280;3001;42.622;23.194;2023-03-18T01:50:13;91483.44;;;2.02;80.42
5952;BME280;3001;42.622;23.194;2023-03-18T01:52:42;91476.59;;;2.13;79.71
5952;BME280;3001;42.622;23.194;2023-03-18T01:55:12;91481.19;;;2.06;80.03
5952;BME280;3001;42.622;23.194;2023-03-18T01:57:40;91479.59;;;2.00;80.38
5952;BME280;3001;42.622;23.194;2023-03-18T02:00:09;91480.63;;;1.99;80.74
5952;BME280;3001;42.622;23.194;2023-03-18T02:02:38;91471.91;;;2.00;81.25
5952;BME280;3001;42.622;23.194;2023-03-18T02:05:08;91471.97;;;2.10;80.45
5952;BME280;3001;42.622;23.194;2023-03-18T02:07:39;91469.72;;;2.13;80.71
5952;BME280;3001;42.622;23.194;2023-03-18T02:10:11;91463.06;;;2.17;79.78
5952;BME280;3001;42.622;23.194;2023-03-18T02:12:42;91463.03;;;2.12;80.93
5952;BME280;3001;42.622;23.194;2023-03-18T02:15:12;91464.03;;;2.06;79.83
5952;BME280;3001;42.622;23.194;2023-03-18T02:17:42;91459.22;;;2.15;80.17
5952;BME280;3001;42.622;23.194;2023-03-18T02:20:22;91467.34;;;2.07;80.52
5952;BME280;3001;42.622;23.194;2023-03-18T02:22:55;91465.47;;;1.97;80.70
5952;BME280;3001;42.622;23.194;2023-03-18T02:25:35;91466.50;;;1.96;80.63
5952;BME280;3001;42.622;23.194;2023-03-18T02:28:08;91461.84;;;1.88;80.94
5952;BME280;3001;42.622;23.194;2023-03-18T02:30:41;91455.59;;;1.79;81.44
5952;BME280;3001;42.622;23.194;2023-03-18T02:33:09;91456.34;;;1.75;81.44
5952;BME280;3001;42.622;23.194;2023-03-18T02:35:37;91458.44;;;1.78;82.36
5952;BME280;3001;42.622;23.194;2023-03-18T02:38:04;91447.91;;;1.79;82.76
5952;BME280;3001;42.622;23.194;2023-03-18T02:40:33;91449.06;;;1.93;83.02
5952;BME280;3001;42.622;23.194;2023-03-18T02:43:18;91455.88;;;2.14;81.60
5952;BME280;3001;42.622;23.194;2023-03-18T02:45:54;91441.69;;;2.02;80.81
5952;BME280;3001;42.622;23.194;2023-03-18T02:48:26;91440.00;;;1.81;81.54
5952;BME280;3001;42.622;23.194;2023-03-18T02:50:57;91448.41;;;1.76;82.52
5952;BME280;3001;42.622;23.194;2023-03-18T02:53:24;91447.84;;;1.69;82.94
5952;BME280;3001;42.622;23.194;2023-03-18T02:55:51;91450.13;;;1.66;83.63
5952;BME280;3001;42.622;23.194;2023-03-18T02:58:19;91449.09;;;1.67;84.85
5952;BME280;3001;42.622;23.194;2023-03-18T03:00:46;91447.88;;;1.74;86.16
5952;BME280;3001;42.622;23.194;2023-03-18T03:03:13;91443.91;;;1.88;84.83
5952;BME280;3001;42.622;23.194;2023-03-18T03:05:40;91444.56;;;2.05;84.13
5952;BME280;3001;42.622;23.194;2023-03-18T03:08:07;91454.47;;;2.33;81.26
5952;BME280;3001;42.622;23.194;2023-03-18T03:10:34;91449.44;;;2.12;81.37
5952;BME280;3001;42.622;23.194;2023-03-18T03:13:01;91445.28;;;2.01;81.76
5952;BME280;3001;42.622;23.194;2023-03-18T03:15:29;91439.06;;;1.92;81.89
5952;BME280;3001;42.622;23.194;2023-03-18T03:17:56;91448.97;;;1.83;81.76
5952;BME280;3001;42.622;23.194;2023-03-18T03:20:23;91445.41;;;1.84;82.19
5952;BME280;3001;42.622;23.194;2023-03-18T03:22:50;91424.72;;;1.60;81.98
5952;BME280;3001;42.622;23.194;2023-03-18T03:25:17;91453.25;;;1.73;81.77
5952;BME280;3001;42.622;23.194;2023-03-18T03:27:44;91451.53;;;1.83;82.68
5952;BME280;3001;42.622;23.194;2023-03-18T03:30:13;91450.22;;;1.76;83.19
5952;BME280;3001;42.622;23.194;2023-03-18T03:32:42;91451.50;;;1.78;83.25
5952;BME280;3001;42.622;23.194;2023-03-18T03:35:11;91453.56;;;1.81;82.08
5952;BME280;3001;42.622;23.194;2023-03-18T03:37:38;91450.81;;;1.88;82.59
5952;BME280;3001;42.622;23.194;2023-03-18T03:40:05;91450.16;;;1.71;83.77
5952;BME280;3001;42.622;23.194;2023-03-18T03:42:32;91445.28;;;1.69;83.02
5952;BME280;3001;42.622;23.194;2023-03-18T03:44:59;91454.25;;;1.72;83.74
5952;BME280;3001;42.622;23.194;2023-03-18T03:47:26;91453.00;;;1.74;83.65
5952;BME280;3001;42.622;23.194;2023-03-18T03:49:54;91451.06;;;1.86;82.56
5952;BME280;3001;42.622;23.194;2023-03-18T03:52:21;91458.16;;;1.79;82.69
5952;BME280;3001;42.622;23.194;2023-03-18T03:54:47;91461.47;;;1.75;83.38
5952;BME280;3001;42.622;23.194;2023-03-18T03:57:14;91453.56;;;1.81;82.52
5952;BME280;3001;42.622;23.194;2023-03-18T03:59:41;91458.97;;;1.85;82.27
5952;BME280;3001;42.622;23.194;2023-03-18T04:02:08;91438.13;;;1.71;82.63
5952;BME280;3001;42.622;23.194;2023-03-18T04:04:35;91455.44;;;1.91;81.54
5952;BME280;3001;42.622;23.194;2023-03-18T04:07:03;91455.25;;;2.02;81.17
5952;BME280;3001;42.622;23.194;2023-03-18T04:09:30;91451.59;;;1.88;81.27
5952;BME280;3001;42.622;23.194;2023-03-18T04:11:59;91455.97;;;1.62;82.90
5952;BME280;3001;42.622;23.194;2023-03-18T04:14:25;91453.31;;;1.52;83.41
5952;BME280;3001;42.622;23.194;2023-03-18T04:16:52;91461.91;;;1.41;83.53
5952;BME280;3001;42.622;23.194;2023-03-18T04:19:20;91460.44;;;1.45;83.88
5952;BME280;3001;42.622;23.194;2023-03-18T04:21:46;91464.47;;;1.41;83.33
5952;BME280;3001;42.622;23.194;2023-03-18T04:24:14;91467.47;;;1.33;83.11
5952;BME280;3001;42.622;23.194;2023-03-18T04:26:41;91457.94;;;1.28;84.10
5952;BME280;3001;42.622;23.194;2023-03-18T04:29:08;91469.09;;;1.17;83.98
5952;BME280;3001;42.622;23.194;2023-03-18T04:31:35;91478.97;;;1.09;84.48
5952;BME280;3001;42.622;23.194;2023-03-18T04:34:02;91466.16;;;1.04;85.49
5952;BME280;3001;42.622;23.194;2023-03-18T04:36:28;91472.44;;;0.96;86.44
5952;BME280;3001;42.622;23.194;2023-03-18T04:38:55;91477.47;;;0.91;85.33
5952;BME280;3001;42.622;23.194;2023-03-18T04:41:23;91469.09;;;0.96;86.25
5952;BME280;3001;42.622;23.194;2023-03-18T04:43:50;91471.84;;;0.89;85.76
5952;BME280;3001;42.622;23.194;2023-03-18T04:46:17;91471.19;;;0.99;86.38
5952;BME280;3001;42.622;23.194;2023-03-18T04:48:44;91479.81;;;1.14;85.12
5952;BME280;3001;42.622;23.194;2023-03-18T04:51:10;91487.34;;;1.04;86.20
5952;BME280;3001;42.622;23.194;2023-03-18T04:53:38;91481.28;;;1.10;85.08
5952;BME280;3001;42.622;23.194;2023-03-18T04:56:05;91484.69;;;1.16;85.12
5952;BME280;3001;42.622;23.194;2023-03-18T04:58:34;91477.88;;;1.26;85.21
5952;BME280;3001;42.622;23.194;2023-03-18T05:01:01;91482.59;;;1.34;84.94
5952;BME280;3001;42.622;23.194;2023-03-18T05:03:29;91478.63;;;1.48;85.66
5952;BME280;3001;42.622;23.194;2023-03-18T05:05:55;91479.63;;;1.47;87.29
5952;BME280;3001;42.622;23.194;2023-03-18T05:08:22;91471.34;;;1.35;88.58
5952;BME280;3001;42.622;23.194;2023-03-18T05:10:49;91457.56;;;1.41;88.10
5952;BME280;3001;42.622;23.194;2023-03-18T05:13:16;91475.91;;;1.60;89.32
5952;BME280;3001;42.622;23.194;2023-03-18T05:15:44;91471.16;;;1.73;88.39
5952;BME280;3001;42.622;23.194;2023-03-18T05:18:11;91475.28;;;1.74;88.37
5952;BME280;3001;42.622;23.194;2023-03-18T05:20:38;91478.31;;;1.71;89.02
5952;BME280;3001;42.622;23.194;2023-03-18T05:23:05;91481.69;;;1.76;88.26
5952;BME280;3001;42.622;23.194;2023-03-18T05:25:31;91478.56;;;1.69;88.96
5952;BME280;3001;42.622;23.194;2023-03-18T05:27:59;91487.34;;;1.78;88.71
5952;BME280;3001;42.622;23.194;2023-03-18T05:30:25;91478.38;;;1.76;88.23
5952;BME280;3001;42.622;23.194;2023-03-18T05:32:53;91481.84;;;1.91;87.87
5952;BME280;3001;42.622;23.194;2023-03-18T05:35:20;91481.28;;;1.84;87.08
5952;BME280;3001;42.622;23.194;2023-03-18T05:37:47;91486.28;;;2.01;87.57
5952;BME280;3001;42.622;23.194;2023-03-18T05:40:14;91486.28;;;2.01;87.44
5952;BME280;3001;42.622;23.194;2023-03-18T05:42:40;91479.47;;;2.16;87.55
5952;BME280;3001;42.622;23.194;2023-03-18T05:45:07;91491.06;;;2.29;85.19
5952;BME280;3001;42.622;23.194;2023-03-18T05:47:34;91498.56;;;2.35;84.96
5952;BME280;3001;42.622;23.194;2023-03-18T05:50:03;91492.72;;;2.40;84.77
5952;BME280;3001;42.622;23.194;2023-03-18T05:52:30;91494.28;;;2.46;84.35
5952;BME280;3001;42.622;23.194;2023-03-18T05:54:57;91495.63;;;2.58;83.50
5952;BME280;3001;42.622;23.194;2023-03-18T05:57:23;91500.44;;;2.50;84.15
5952;BME280;3001;42.622;23.194;2023-03-18T05:59:50;91493.47;;;2.40;83.71
5952;BME280;3001;42.622;23.194;2023-03-18T06:02:17;91507.75;;;2.31;85.35
5952;BME280;3001;42.622;23.194;2023-03-18T06:04:44;91503.41;;;2.32;85.61
5952;BME280;3001;42.622;23.194;2023-03-18T06:07:13;91511.59;;;2.34;84.25
5952;BME280;3001;42.622;23.194;2023-03-18T06:09:40;91510.31;;;2.31;83.78
5952;BME280;3001;42.622;23.194;2023-03-18T06:12:07;91510.38;;;2.41;82.95
5952;BME280;3001;42.622;23.194;2023-03-18T06:14:35;91508.50;;;2.27;83.35
5952;BME280;3001;42.622;23.194;2023-03-18T06:17:01;91514.84;;;2.19;83.40
5952;BME280;3001;42.622;23.194;2023-03-18T06:19:28;91517.38;;;2.14;83.66
5952;BME280;3001;42.622;23.194;2023-03-18T06:21:56;91517.06;;;2.11;83.79
5952;BME280;3001;42.622;23.194;2023-03-18T06:24:24;91516.72;;;1.97;84.81
5952;BME280;3001;42.622;23.194;2023-03-18T06:26:51;91515.19;;;2.01;85.15
5952;BME280;3001;42.622;23.194;2023-03-18T06:29:18;91519.03;;;2.30;84.36
5952;BME280;3001;42.622;23.194;2023-03-18T06:31:45;91514.94;;;2.29;84.32
5952;BME280;3001;42.622;23.194;2023-03-18T06:34:12;91518.56;;;2.38;84.80
5952;BME280;3001;42.622;23.194;2023-03-18T06:36:39;91520.59;;;2.36;83.94
5952;BME280;3001;42.622;23.194;2023-03-18T06:39:06;91512.19;;;2.41;84.48
5952;BME280;3001;42.622;23.194;2023-03-18T06:41:34;91512.00;;;2.52;85.42
5952;BME280;3001;42.622;23.194;2023-03-18T06:44:01;91502.00;;;2.51;86.92
5952;BME280;3001;42.622;23.194;2023-03-18T06:46:28;91508.97;;;2.60;87.24
5952;BME280;3001;42.622;23.194;2023-03-18T06:48:55;91509.56;;;2.67;86.77
5952;BME280;3001;42.622;23.194;2023-03-18T06:51:22;91505.47;;;2.71;87.68
5952;BME280;3001;42.622;23.194;2023-03-18T06:53:49;91503.75;;;2.87;86.00
5952;BME280;3001;42.622;23.194;2023-03-18T06:56:15;91506.03;;;2.83;86.22
5952;BME280;3001;42.622;23.194;2023-03-18T06:58:44;91515.31;;;2.89;85.25
5952;BME280;3001;42.622;23.194;2023-03-18T07:01:11;91511.50;;;2.97;86.20
5952;BME280;3001;42.622;23.194;2023-03-18T07:03:38;91507.34;;;2.86;86.79
5952;BME280;3001;42.622;23.194;2023-03-18T07:06:05;91509.16;;;2.90;85.50
5952;BME280;3001;42.622;23.194;2023-03-18T07:08:34;91493.19;;;2.78;85.29
5952;BME280;3001;42.622;23.194;2023-03-18T07:11:01;91504.59;;;3.02;86.08
5952;BME280;3001;42.622;23.194;2023-03-18T07:13:28;91509.03;;;3.17;86.92
5952;BME280;3001;42.622;23.194;2023-03-18T07:15:56;91514.72;;;3.33;85.37
5952;BME280;3001;42.622;23.194;2023-03-18T07:18:24;91509.13;;;3.46;83.89
5952;BME280;3001;42.622;23.194;2023-03-18T07:20:51;91509.44;;;3.65;84.22
5952;BME280;3001;42.622;23.194;2023-03-18T07:23:18;91507.38;;;3.67;85.41
5952;BME280;3001;42.622;23.194;2023-03-18T07:25:46;91504.09;;;3.81;85.38
5952;BME280;3001;42.622;23.194;2023-03-18T07:28:12;91507.72;;;4.00;83.12
5952;BME280;3001;42.622;23.194;2023-03-18T07:30:39;91500.75;;;4.01;82.17
5952;BME280;3001;42.622;23.194;2023-03-18T07:33:07;91508.75;;;4.34;82.15
5952;BME280;3001;42.622;23.194;2023-03-18T07:35:34;91508.50;;;4.56;81.90
5952;BME280;3001;42.622;23.194;2023-03-18T07:38:02;91511.81;;;4.71;81.01
5952;BME280;3001;42.622;23.194;2023-03-18T07:40:28;91508.19;;;4.82;81.25
5952;BME280;3001;42.622;23.194;2023-03-18T07:42:55;91510.97;;;5.01;81.60
5952;BME280;3001;42.622;23.194;2023-03-18T07:45:22;91509.97;;;4.97;82.22
5952;BME280;3001;42.622;23.194;2023-03-18T07:47:50;91507.38;;;5.11;82.03
5952;BME280;3001;42.622;23.194;2023-03-18T07:50:18;91505.22;;;5.28;81.27
5952;BME280;3001;42.622;23.194;2023-03-18T07:52:44;91497.25;;;5.30;80.16
5952;BME280;3001;42.622;23.194;2023-03-18T07:55:11;91488.72;;;5.39;80.76
5952;BME280;3001;42.622;23.194;2023-03-18T07:57:38;91509.22;;;5.59;80.15
5952;BME280;3001;42.622;23.194;2023-03-18T08:00:07;91510.50;;;5.67;80.22
5952;BME280;3001;42.622;23.194;2023-03-18T08:02:34;91511.50;;;5.71;80.56
5952;BME280;3001;42.622;23.194;2023-03-18T08:05:01;91512.88;;;6.02;79.59
5952;BME280;3001;42.622;23.194;2023-03-18T08:07:29;91511.19;;;6.26;78.88
5952;BME280;3001;42.622;23.194;2023-03-18T08:09:56;91508.13;;;6.19;79.36
5952;BME280;3001;42.622;23.194;2023-03-18T08:12:23;91504.03;;;6.18;80.17
5952;BME280;3001;42.622;23.194;2023-03-18T08:14:49;91513.78;;;6.21;80.70
5952;BME280;3001;42.622;23.194;2023-03-18T08:17:16;91509.13;;;6.28;80.50
5952;BME280;3001;42.622;23.194;2023-03-18T08:19:43;91502.44;;;6.27;80.87
5952;BME280;3001;42.622;23.194;2023-03-18T08:22:11;91507.78;;;6.30;81.25
5952;BME280;3001;42.622;23.194;2023-03-18T08:24:39;91512.25;;;6.53;80.92
5952;BME280;3001;42.622;23.194;2023-03-18T08:27:07;91515.50;;;6.69;80.51
5952;BME280;3001;42.622;23.194;2023-03-18T08:29:34;91516.63;;;6.86;78.37
5952;BME280;3001;42.622;23.194;2023-03-18T08:32:01;91518.97;;;7.11;77.25
5952;BME280;3001;42.622;23.194;2023-03-18T08:34:28;91516.06;;;7.17;77.23
5952;BME280;3001;42.622;23.194;2023-03-18T08:36:54;91516.19;;;7.31;74.98
5952;BME280;3001;42.622;23.194;2023-03-18T08:39:21;91515.03;;;7.42;74.14
5952;BME280;3001;42.622;23.194;2023-03-18T08:41:49;91503.13;;;7.64;73.84
5952;BME280;3001;42.622;23.194;2023-03-18T08:44:16;91513.94;;;7.90;74.66
5952;BME280;3001;42.622;23.194;2023-03-18T08:46:43;91510.59;;;8.08;72.59
5952;BME280;3001;42.622;23.194;2023-03-18T08:49:10;91510.63;;;8.26;71.83
5952;BME280;3001;42.622;23.194;2023-03-18T08:51:36;91521.53;;;8.42;72.57
5952;BME280;3001;42.622;23.194;2023-03-18T08:54:04;91514.84;;;8.72;71.93
5952;BME280;3001;42.622;23.194;2023-03-18T08:56:31;91522.19;;;8.97;71.83
5952;BME280;3001;42.622;23.194;2023-03-18T08:58:59;91521.47;;;9.10;72.71
5952;BME280;3001;42.622;23.194;2023-03-18T09:01:26;91523.81;;;9.25;70.38
5952;BME280;3001;42.622;23.194;2023-03-18T09:03:53;91534.94;;;9.39;70.30
5952;BME280;3001;42.622;23.194;2023-03-18T09:06:22;91540.25;;;9.61;69.52
5952;BME280;3001;42.622;23.194;2023-03-18T09:08:48;91539.19;;;9.62;69.24
5952;BME280;3001;42.622;23.194;2023-03-18T09:11:15;91544.00;;;9.96;68.31
5952;BME280;3001;42.622;23.194;2023-03-18T09:13:42;91537.75;;;10.10;68.75
5952;BME280;3001;42.622;23.194;2023-03-18T09:16:10;91544.84;;;10.18;69.00
5952;BME280;3001;42.622;23.194;2023-03-18T09:18:37;91545.03;;;10.22;68.27
5952;BME280;3001;42.622;23.194;2023-03-18T09:21:05;91558.41;;;10.15;65.26
5952;BME280;3001;42.622;23.194;2023-03-18T09:23:32;91560.63;;;10.08;66.00
5952;BME280;3001;42.622;23.194;2023-03-18T09:25:59;91558.72;;;10.14;65.41
5952;BME280;3001;42.622;23.194;2023-03-18T09:28:26;91558.25;;;10.12;64.86
5952;BME280;3001;42.622;23.194;2023-03-18T09:30:53;91561.69;;;10.21;65.27
5952;BME280;3001;42.622;23.194;2023-03-18T09:33:22;91562.00;;;10.41;65.99
5952;BME280;3001;42.622;23.194;2023-03-18T09:35:49;91557.81;;;10.67;64.53
5952;BME280;3001;42.622;23.194;2023-03-18T09:38:17;91563.16;;;10.84;63.00
5952;BME280;3001;42.622;23.194;2023-03-18T09:40:50;91558.38;;;10.99;61.66
5952;BME280;3001;42.622;23.194;2023-03-18T09:43:32;91553.28;;;10.94;60.94
5952;BME280;3001;42.622;23.194;2023-03-18T09:46:06;91561.59;;;11.27;59.62
5952;BME280;3001;42.622;23.194;2023-03-18T09:49:01;91563.66;;;11.38;58.63
5952;BME280;3001;42.622;23.194;2023-03-18T09:51:41;91562.84;;;11.29;55.47
5952;BME280;3001;42.622;23.194;2023-03-18T09:54:14;91570.53;;;11.34;53.70
5952;BME280;3001;42.622;23.194;2023-03-18T09:56:43;91568.09;;;11.38;51.35
5952;BME280;3001;42.622;23.194;2023-03-18T09:59:16;91572.81;;;11.36;54.90
5952;BME280;3001;42.622;23.194;2023-03-18T10:01:48;91574.88;;;11.47;52.35
5952;BME280;3001;42.622;23.194;2023-03-18T10:04:20;91571.59;;;11.64;51.63
5952;BME280;3001;42.622;23.194;2023-03-18T10:06:50;91567.22;;;11.73;52.63
5952;BME280;3001;42.622;23.194;2023-03-18T10:09:23;91557.84;;;11.63;52.30
5952;BME280;3001;42.622;23.194;2023-03-18T10:11:56;91571.28;;;11.96;54.08
5952;BME280;3001;42.622;23.194;2023-03-18T10:14:36;91576.94;;;12.36;50.56
5952;BME280;3001;42.622;23.194;2023-03-18T10:17:13;91565.91;;;12.39;51.88
5952;BME280;3001;42.622;23.194;2023-03-18T10:19:45;91575.81;;;12.20;50.30
5952;BME280;3001;42.622;23.194;2023-03-18T10:22:31;91585.63;;;12.23;49.77
5952;BME280;3001;42.622;23.194;2023-03-18T10:25:08;91574.13;;;12.16;49.90
5952;BME280;3001;42.622;23.194;2023-03-18T10:27:47;91573.31;;;12.07;50.31
5952;BME280;3001;42.622;23.194;2023-03-18T10:30:25;91575.91;;;11.99;49.76
5952;BME280;3001;42.622;23.194;2023-03-18T10:32:58;91570.69;;;11.99;49.71
5952;BME280;3001;42.622;23.194;2023-03-18T10:35:36;91569.28;;;11.93;48.54
5952;BME280;3001;42.622;23.194;2023-03-18T10:38:13;91570.00;;;11.76;49.04
5952;BME280;3001;42.622;23.194;2023-03-18T10:40:45;91580.09;;;11.78;48.86
5952;BME280;3001;42.622;23.194;2023-03-18T10:43:15;91573.25;;;11.90;51.09
5952;BME280;3001;42.622;23.194;2023-03-18T10:45:45;91571.03;;;12.06;49.90
5952;BME280;3001;42.622;23.194;2023-03-18T10:48:18;91571.63;;;12.02;48.44
5952;BME280;3001;42.622;23.194;2023-03-18T10:50:53;91565.69;;;12.10;46.61
5952;BME280;3001;42.622;23.194;2023-03-18T10:53:26;91558.69;;;12.28;47.53
5952;BME280;3001;42.622;23.194;2023-03-18T10:55:58;91557.97;;;12.61;49.15
5952;BME280;3001;42.622;23.194;2023-03-18T10:58:26;91564.25;;;12.86;48.58
5952;BME280;3001;42.622;23.194;2023-03-18T11:00:54;91566.00;;;12.99;45.67
5952;BME280;3001;42.622;23.194;2023-03-18T11:03:25;91559.38;;;13.10;44.35
5952;BME280;3001;42.622;23.194;2023-03-18T11:05:56;91540.66;;;13.16;41.39
5952;BME280;3001;42.622;23.194;2023-03-18T11:08:30;91543.34;;;13.45;43.12
5952;BME280;3001;42.622;23.194;2023-03-18T11:11:01;91549.31;;;13.63;44.30
5952;BME280;3001;42.622;23.194;2023-03-18T11:13:44;91552.00;;;13.83;42.87
5952;BME280;3001;42.622;23.194;2023-03-18T11:16:20;91545.63;;;14.01;39.67
5952;BME280;3001;42.622;23.194;2023-03-18T11:18:48;91543.88;;;13.84;39.57
5952;BME280;3001;42.622;23.194;2023-03-18T11:21:18;91544.22;;;13.66;41.13
5952;BME280;3001;42.622;23.194;2023-03-18T11:23:51;91547.50;;;13.46;43.94
5952;BME280;3001;42.622;23.194;2023-03-18T11:26:43;91545.84;;;13.33;43.10
5952;BME280;3001;42.622;23.194;2023-03-18T11:29:14;91544.97;;;13.04;44.30
5952;BME280;3001;42.622;23.194;2023-03-18T11:31:50;91551.38;;;12.72;45.13
5952;BME280;3001;42.622;23.194;2023-03-18T11:34:19;91551.66;;;12.54;45.72
5952;BME280;3001;42.622;23.194;2023-03-18T11:37:00;91552.38;;;12.20;46.37
5952;BME280;3001;42.622;23.194;2023-03-18T11:39:30;91544.53;;;12.12;47.95
5952;BME280;3001;42.622;23.194;2023-03-18T11:41:58;91544.22;;;11.66;47.93
5952;BME280;3001;42.622;23.194;2023-03-18T11:44:30;91548.72;;;11.52;49.49
5952;BME280;3001;42.622;23.194;2023-03-18T11:47:02;91546.81;;;11.36;50.03
5952;BME280;3001;42.622;23.194;2023-03-18T11:49:30;91545.22;;;11.26;50.04
5952;BME280;3001;42.622;23.194;2023-03-18T11:52:05;91542.63;;;11.26;50.43
5952;BME280;3001;42.622;23.194;2023-03-18T11:54:59;91537.09;;;11.19;49.55
5952;BME280;3001;42.622;23.194;2023-03-18T11:57:34;91532.13;;;11.40;51.27
5952;BME280;3001;42.622;23.194;2023-03-18T12:00:22;91544.38;;;12.08;48.13
5952;BME280;3001;42.622;23.194;2023-03-18T12:03:25;91549.97;;;12.41;45.00
5952;BME280;3001;42.622;23.194;2023-03-18T12:06:04;91535.91;;;12.93;45.41
5952;BME280;3001;42.622;23.194;2023-03-18T12:08:44;91538.94;;;13.37;43.80
5952;BME280;3001;42.622;23.194;2023-03-18T12:11:18;91548.06;;;13.69;42.01
5952;BME280;3001;42.622;23.194;2023-03-18T12:13:58;91547.59;;;13.67;40.42
5952;BME280;3001;42.622;23.194;2023-03-18T12:16:36;91558.53;;;13.60;38.87
5952;BME280;3001;42.622;23.194;2023-03-18T12:19:16;91554.59;;;13.20;40.84
5952;BME280;3001;42.622;23.194;2023-03-18T12:22:13;91548.03;;;12.97;39.67
5952;BME280;3001;42.622;23.194;2023-03-18T12:24:59;91557.22;;;12.69;41.87
5952;BME280;3001;42.622;23.194;2023-03-18T12:27:36;91554.75;;;12.47;41.32
5952;BME280;3001;42.622;23.194;2023-03-18T12:30:14;91552.13;;;12.64;42.15
5952;BME280;3001;42.622;23.194;2023-03-18T12:32:49;91543.91;;;12.96;46.15
5952;BME280;3001;42.622;23.194;2023-03-18T12:35:34;91538.94;;;13.37;43.49
5952;BME280;3001;42.622;23.194;2023-03-18T12:41:09;91550.59;;;13.48;40.05
5952;BME280;3001;42.622;23.194;2023-03-18T12:43:50;91553.34;;;13.26;40.84
5952;BME280;3001;42.622;23.194;2023-03-18T12:46:27;91554.63;;;13.03;41.39
5952;BME280;3001;42.622;23.194;2023-03-18T12:49:00;91542.81;;;13.06;42.69
5952;BME280;3001;42.622;23.194;2023-03-18T12:51:37;91543.41;;;13.28;42.91
5952;BME280;3001;42.622;23.194;2023-03-18T12:54:09;91546.53;;;13.59;41.00
5952;BME280;3001;42.622;23.194;2023-03-18T12:56:44;91544.94;;;13.83;40.66
5952;BME280;3001;42.622;23.194;2023-03-18T12:59:20;91547.75;;;14.16;41.58
5952;BME280;3001;42.622;23.194;2023-03-18T13:01:55;91544.66;;;14.22;40.21
5952;BME280;3001;42.622;23.194;2023-03-18T13:04:26;91557.94;;;14.38;39.10
5952;BME280;3001;42.622;23.194;2023-03-18T13:06:59;91540.66;;;14.16;38.86
5952;BME280;3001;42.622;23.194;2023-03-18T13:09:33;91547.34;;;13.97;39.70
5952;BME280;3001;42.622;23.194;2023-03-18T13:12:08;91553.31;;;13.60;38.44
5952;BME280;3001;42.622;23.194;2023-03-18T13:14:46;91550.09;;;13.55;39.49
5952;BME280;3001;42.622;23.194;2023-03-18T13:17:21;91543.63;;;13.69;41.48
5952;BME280;3001;42.622;23.194;2023-03-18T13:19:50;91551.88;;;13.80;41.32
5952;BME280;3001;42.622;23.194;2023-03-18T13:22:43;91546.25;;;13.98;38.00
5952;BME280;3001;42.622;23.194;2023-03-18T13:25:17;91544.34;;;14.15;39.58
5952;BME280;3001;42.622;23.194;2023-03-18T13:27:56;91553.25;;;14.14;38.01
5952;BME280;3001;42.622;23.194;2023-03-18T13:30:31;91542.38;;;14.04;39.27
5952;BME280;3001;42.622;23.194;2023-03-18T13:33:20;91554.66;;;13.66;40.10
5952;BME280;3001;42.622;23.194;2023-03-18T13:36:06;91559.78;;;13.54;40.97